sensor_id;sensor_type;location;lat;lon;timestamp;temperature;humidity
19033;DHT22;9649;51.042;13.804;2023-08-20T00:04:10;24.50;1.00
19033;DHT22;9649;51.042;13.804;2023-08-20T00:09:13;24.60;1.00
19033;DHT22;9649;51.042;13.804;2023-08-20T00:14:17;24.60;1.00
19033;DHT22;9649;51.042;13.804;2023-08-20T00:19:21;24.60;1.00
19033;DHT22;9649;51.042;13.804;2023-08-20T00:24:25;24.60;1.00
19033;DHT22;9649;51.042;13.804;2023-08-20T00:29:28;24.60;1.00
19033;DHT22;9649;51.042;13.804;2023-08-20T00:34:32;24.60;1.00
19033;DHT22;9649;51.042;13.804;2023-08-20T00:39:35;24.60;1.00
19033;DHT22;9649;51.042;13.804;2023-08-20T00:44:38;24.70;99.90
19033;DHT22;9649;51.042;13.804;2023-08-20T00:49:44;24.50;1.00
19033;DHT22;9649;51.042;13.804;2023-08-20T00:54:47;24.40;1.00
19033;DHT22;9649;51.042;13.804;2023-08-20T00:59:55;24.50;1.00
19033;DHT22;9649;51.042;13.804;2023-08-20T01:05:00;24.50;1.00
19033;DHT22;9649;51.042;13.804;2023-08-20T01:10:09;24.50;99.90
19033;DHT22;9649;51.042;13.804;2023-08-20T01:15:16;24.60;99.90
19033;DHT22;9649;51.042;13.804;2023-08-20T01:20:23;24.60;99.90
19033;DHT22;9649;51.042;13.804;2023-08-20T01:25:37;24.60;99.90
19033;DHT22;9649;51.042;13.804;2023-08-20T01:30:47;24.60;99.90
19033;DHT22;9649;51.042;13.804;2023-08-20T01:35:51;24.50;99.90
19033;DHT22;9649;51.042;13.804;2023-08-20T01:40:54;24.50;99.90
19033;DHT22;9649;51.042;13.804;2023-08-20T01:45:59;24.50;99.90
19033;DHT22;9649;51.042;13.804;2023-08-20T01:51:02;24.40;99.90
19033;DHT22;9649;51.042;13.804;2023-08-20T01:56:11;24.20;99.90
19033;DHT22;9649;51.042;13.804;2023-08-20T02:01:15;24.20;1.00
19033;DHT22;9649;51.042;13.804;2023-08-20T02:06:18;24.40;99.90
19033;DHT22;9649;51.042;13.804;2023-08-20T02:11:21;24.40;99.90
19033;DHT22;9649;51.042;13.804;2023-08-20T02:16:25;24.30;99.90
19033;DHT22;9649;51.042;13.804;2023-08-20T02:21:28;24.40;99.90
19033;DHT22;9649;51.042;13.804;2023-08-20T02:26:30;24.30;1.00
19033;DHT22;9649;51.042;13.804;2023-08-20T02:31:35;24.20;1.00
19033;DHT22;9649;51.042;13.804;2023-08-20T02:36:37;24.20;1.00
19033;DHT22;9649;51.042;13.804;2023-08-20T02:41:40;24.10;1.00
19033;DHT22;9649;51.042;13.804;2023-08-20T02:46:45;24.10;1.00
19033;DHT22;9649;51.042;13.804;2023-08-20T02:51:48;24.00;1.00
19033;DHT22;9649;51.042;13.804;2023-08-20T02:56:51;24.00;1.00
19033;DHT22;9649;51.042;13.804;2023-08-20T03:01:55;24.10;1.00
19033;DHT22;9649;51.042;13.804;2023-08-20T03:06:58;24.20;1.00
19033;DHT22;9649;51.042;13.804;2023-08-20T03:12:01;24.10;1.00
19033;DHT22;9649;51.042;13.804;2023-08-20T03:17:05;24.10;1.00
19033;DHT22;9649;51.042;13.804;2023-08-20T03:22:08;24.00;1.00
19033;DHT22;9649;51.042;13.804;2023-08-20T03:27:11;24.10;1.00
19033;DHT22;9649;51.042;13.804;2023-08-20T03:32:15;24.20;1.00
19033;DHT22;9649;51.042;13.804;2023-08-20T03:37:18;24.10;1.00
19033;DHT22;9649;51.042;13.804;2023-08-20T03:42:21;24.00;1.00
19033;DHT22;9649;51.042;13.804;2023-08-20T03:47:25;23.90;1.00
19033;DHT22;9649;51.042;13.804;2023-08-20T03:52:28;23.90;1.00
19033;DHT22;9649;51.042;13.804;2023-08-20T03:57:31;24.00;1.00
19033;DHT22;9649;51.042;13.804;2023-08-20T04:02:35;24.10;1.00
19033;DHT22;9649;51.042;13.804;2023-08-20T04:07:38;24.10;1.00
19033;DHT22;9649;51.042;13.804;2023-08-20T04:12:41;24.20;1.00
19033;DHT22;9649;51.042;13.804;2023-08-20T04:17:45;24.20;1.00
19033;DHT22;9649;51.042;13.804;2023-08-20T04:22:48;24.10;1.00
19033;DHT22;9649;51.042;13.804;2023-08-20T04:27:51;24.10;1.00
19033;DHT22;9649;51.042;13.804;2023-08-20T04:32:55;24.10;1.00
19033;DHT22;9649;51.042;13.804;2023-08-20T04:37:59;23.90;1.00
19033;DHT22;9649;51.042;13.804;2023-08-20T04:43:01;24.00;1.00
19033;DHT22;9649;51.042;13.804;2023-08-20T04:48:06;24.20;1.00
19033;DHT22;9649;51.042;13.804;2023-08-20T04:53:09;24.00;1.00
19033;DHT22;9649;51.042;13.804;2023-08-20T04:58:12;24.00;1.00
19033;DHT22;9649;51.042;13.804;2023-08-20T05:03:16;24.20;1.00
19033;DHT22;9649;51.042;13.804;2023-08-20T05:08:19;24.20;1.00
19033;DHT22;9649;51.042;13.804;2023-08-20T05:13:22;24.40;1.00
19033;DHT22;9649;51.042;13.804;2023-08-20T05:18:26;24.60;1.00
19033;DHT22;9649;51.042;13.804;2023-08-20T05:23:29;25.00;1.00
19033;DHT22;9649;51.042;13.804;2023-08-20T05:28:32;25.20;1.00
19033;DHT22;9649;51.042;13.804;2023-08-20T05:33:36;25.40;1.00
19033;DHT22;9649;51.042;13.804;2023-08-20T05:38:39;25.60;99.90
19033;DHT22;9649;51.042;13.804;2023-08-20T05:43:44;25.80;99.90
19033;DHT22;9649;51.042;13.804;2023-08-20T05:48:48;25.90;99.90
19033;DHT22;9649;51.042;13.804;2023-08-20T05:53:53;26.10;1.00
19033;DHT22;9649;51.042;13.804;2023-08-20T05:58:56;26.00;1.00
19033;DHT22;9649;51.042;13.804;2023-08-20T06:04:00;26.20;1.00
19033;DHT22;9649;51.042;13.804;2023-08-20T06:09:03;26.20;1.00
19033;DHT22;9649;51.042;13.804;2023-08-20T06:14:10;26.30;1.00
19033;DHT22;9649;51.042;13.804;2023-08-20T06:19:14;26.40;99.90
19033;DHT22;9649;51.042;13.804;2023-08-20T06:24:18;26.30;1.00
19033;DHT22;9649;51.042;13.804;2023-08-20T06:29:21;26.40;1.00
19033;DHT22;9649;51.042;13.804;2023-08-20T06:34:25;26.50;1.00
19033;DHT22;9649;51.042;13.804;2023-08-20T06:39:28;26.70;1.00
19033;DHT22;9649;51.042;13.804;2023-08-20T06:44:31;26.90;1.00
19033;DHT22;9649;51.042;13.804;2023-08-20T06:49:35;27.10;1.00
19033;DHT22;9649;51.042;13.804;2023-08-20T06:54:38;27.20;1.00
19033;DHT22;9649;51.042;13.804;2023-08-20T06:59:41;27.30;99.90
19033;DHT22;9649;51.042;13.804;2023-08-20T07:04:46;27.20;99.90
19033;DHT22;9649;51.042;13.804;2023-08-20T07:09:49;26.80;1.00
19033;DHT22;9649;51.042;13.804;2023-08-20T07:14:52;26.90;1.00
19033;DHT22;9649;51.042;13.804;2023-08-20T07:19:56;27.30;1.00
19033;DHT22;9649;51.042;13.804;2023-08-20T07:24:59;27.50;99.90
19033;DHT22;9649;51.042;13.804;2023-08-20T07:30:02;27.50;99.90
19033;DHT22;9649;51.042;13.804;2023-08-20T07:35:07;27.70;1.00
19033;DHT22;9649;51.042;13.804;2023-08-20T07:40:13;28.10;99.90
19033;DHT22;9649;51.042;13.804;2023-08-20T07:45:17;28.30;1.00
19033;DHT22;9649;51.042;13.804;2023-08-20T07:50:21;28.90;1.00
19033;DHT22;9649;51.042;13.804;2023-08-20T07:55:24;29.40;99.90
19033;DHT22;9649;51.042;13.804;2023-08-20T08:00:27;29.60;1.00
19033;DHT22;9649;51.042;13.804;2023-08-20T08:05:31;30.30;1.00
19033;DHT22;9649;51.042;13.804;2023-08-20T08:10:34;30.90;64.30
19033;DHT22;9649;51.042;13.804;2023-08-20T08:15:37;31.80;1.00
19033;DHT22;9649;51.042;13.804;2023-08-20T08:20:42;33.50;99.90
19033;DHT22;9649;51.042;13.804;2023-08-20T08:25:45;33.50;1.00
19033;DHT22;9649;51.042;13.804;2023-08-20T08:30:47;31.50;99.90
19033;DHT22;9649;51.042;13.804;2023-08-20T08:35:52;30.90;1.00
19033;DHT22;9649;51.042;13.804;2023-08-20T08:40:55;32.50;1.00
19033;DHT22;9649;51.042;13.804;2023-08-20T08:45:58;34.10;1.00
19033;DHT22;9649;51.042;13.804;2023-08-20T08:51:04;33.90;1.00
19033;DHT22;9649;51.042;13.804;2023-08-20T08:56:07;33.20;1.00
19033;DHT22;9649;51.042;13.804;2023-08-20T09:01:10;32.10;1.00
19033;DHT22;9649;51.042;13.804;2023-08-20T09:06:14;31.70;99.90
19033;DHT22;9649;51.042;13.804;2023-08-20T09:11:17;32.30;99.90
19033;DHT22;9649;51.042;13.804;2023-08-20T09:16:20;32.80;1.00
19033;DHT22;9649;51.042;13.804;2023-08-20T09:21:27;36.90;1.00
19033;DHT22;9649;51.042;13.804;2023-08-20T09:26:31;41.30;99.90
19033;DHT22;9649;51.042;13.804;2023-08-20T09:31:38;37.60;99.90
19033;DHT22;9649;51.042;13.804;2023-08-20T09:36:43;38.40;99.90
19033;DHT22;9649;51.042;13.804;2023-08-20T09:41:47;39.10;99.90
19033;DHT22;9649;51.042;13.804;2023-08-20T09:52:51;43.80;99.90
19033;DHT22;9649;51.042;13.804;2023-08-20T09:57:57;45.00;99.90
19033;DHT22;9649;51.042;13.804;2023-08-20T10:03:05;44.00;99.90
19033;DHT22;9649;51.042;13.804;2023-08-20T10:08:09;44.60;99.90
19033;DHT22;9649;51.042;13.804;2023-08-20T10:13:16;42.60;99.90
19033;DHT22;9649;51.042;13.804;2023-08-20T10:18:19;40.30;99.90
19033;DHT22;9649;51.042;13.804;2023-08-20T10:23:24;38.00;99.90
19033;DHT22;9649;51.042;13.804;2023-08-20T10:28:27;37.60;99.90
19033;DHT22;9649;51.042;13.804;2023-08-20T10:33:33;42.80;99.90
19033;DHT22;9649;51.042;13.804;2023-08-20T10:38:37;48.00;96.20
19033;DHT22;9649;51.042;13.804;2023-08-20T10:43:46;51.00;2.00
19033;DHT22;9649;51.042;13.804;2023-08-20T10:48:51;51.60;1.00
19033;DHT22;9649;51.042;13.804;2023-08-20T10:54:06;52.10;1.00
19033;DHT22;9649;51.042;13.804;2023-08-20T10:59:16;51.30;1.00
19033;DHT22;9649;51.042;13.804;2023-08-20T11:04:20;52.70;1.00
19033;DHT22;9649;51.042;13.804;2023-08-20T11:09:25;54.30;1.00
19033;DHT22;9649;51.042;13.804;2023-08-20T11:14:28;53.90;1.00
19033;DHT22;9649;51.042;13.804;2023-08-20T11:19:32;54.20;1.00
19033;DHT22;9649;51.042;13.804;2023-08-20T11:24:36;53.90;1.00
19033;DHT22;9649;51.042;13.804;2023-08-20T11:29:42;52.70;1.00
19033;DHT22;9649;51.042;13.804;2023-08-20T11:34:46;52.70;1.00
19033;DHT22;9649;51.042;13.804;2023-08-20T11:39:50;53.20;1.00
19033;DHT22;9649;51.042;13.804;2023-08-20T11:44:56;54.10;1.00
19033;DHT22;9649;51.042;13.804;2023-08-20T11:50:03;54.50;1.00
19033;DHT22;9649;51.042;13.804;2023-08-20T11:55:08;54.60;1.00
19033;DHT22;9649;51.042;13.804;2023-08-20T12:00:24;53.20;1.00
19033;DHT22;9649;51.042;13.804;2023-08-20T12:05:28;52.90;1.00
19033;DHT22;9649;51.042;13.804;2023-08-20T12:10:33;50.60;1.00
19033;DHT22;9649;51.042;13.804;2023-08-20T12:15:36;50.70;1.00
19033;DHT22;9649;51.042;13.804;2023-08-20T12:20:39;52.00;1.00
19033;DHT22;9649;51.042;13.804;2023-08-20T12:25:43;55.20;1.00
19033;DHT22;9649;51.042;13.804;2023-08-20T12:30:45;55.00;1.00
19033;DHT22;9649;51.042;13.804;2023-08-20T12:35:48;55.70;1.00
19033;DHT22;9649;51.042;13.804;2023-08-20T12:40:56;55.10;1.00
19033;DHT22;9649;51.042;13.804;2023-08-20T12:45:58;53.70;1.00
19033;DHT22;9649;51.042;13.804;2023-08-20T12:51:01;53.80;1.00
19033;DHT22;9649;51.042;13.804;2023-08-20T12:56:06;52.60;1.00
19033;DHT22;9649;51.042;13.804;2023-08-20T13:01:09;51.70;1.00
19033;DHT22;9649;51.042;13.804;2023-08-20T13:06:12;53.20;1.00
19033;DHT22;9649;51.042;13.804;2023-08-20T13:11:17;50.50;1.00
19033;DHT22;9649;51.042;13.804;2023-08-20T13:16:23;51.90;1.00
19033;DHT22;9649;51.042;13.804;2023-08-20T13:21:26;53.10;1.00
19033;DHT22;9649;51.042;13.804;2023-08-20T13:26:30;53.60;1.00
19033;DHT22;9649;51.042;13.804;2023-08-20T13:31:32;54.40;1.00
19033;DHT22;9649;51.042;13.804;2023-08-20T13:36:37;54.00;1.00
19033;DHT22;9649;51.042;13.804;2023-08-20T13:41:41;52.30;1.00
19033;DHT22;9649;51.042;13.804;2023-08-20T13:46:44;49.00;1.00
19033;DHT22;9649;51.042;13.804;2023-08-20T13:51:47;44.80;1.00
19033;DHT22;9649;51.042;13.804;2023-08-20T13:56:51;43.50;1.00
19033;DHT22;9649;51.042;13.804;2023-08-20T14:01:54;43.80;1.00
19033;DHT22;9649;51.042;13.804;2023-08-20T14:07:24;46.00;1.00
19033;DHT22;9649;51.042;13.804;2023-08-20T14:12:30;48.60;1.00
19033;DHT22;9649;51.042;13.804;2023-08-20T14:17:33;48.00;1.00
19033;DHT22;9649;51.042;13.804;2023-08-20T14:22:36;47.70;1.00
19033;DHT22;9649;51.042;13.804;2023-08-20T14:27:41;48.00;1.00
19033;DHT22;9649;51.042;13.804;2023-08-20T14:32:43;48.40;1.00
19033;DHT22;9649;51.042;13.804;2023-08-20T14:37:47;49.50;1.00
19033;DHT22;9649;51.042;13.804;2023-08-20T14:42:51;48.70;1.00
19033;DHT22;9649;51.042;13.804;2023-08-20T14:47:54;47.50;1.00
19033;DHT22;9649;51.042;13.804;2023-08-20T14:52:57;48.40;1.00
19033;DHT22;9649;51.042;13.804;2023-08-20T14:58:01;49.00;1.00
19033;DHT22;9649;51.042;13.804;2023-08-20T15:03:06;48.80;1.00
19033;DHT22;9649;51.042;13.804;2023-08-20T15:08:09;48.90;1.00
19033;DHT22;9649;51.042;13.804;2023-08-20T15:13:13;48.30;1.00
19033;DHT22;9649;51.042;13.804;2023-08-20T15:18:16;46.80;1.00
19033;DHT22;9649;51.042;13.804;2023-08-20T15:23:19;45.70;1.00
19033;DHT22;9649;51.042;13.804;2023-08-20T15:28:24;45.10;1.00
19033;DHT22;9649;51.042;13.804;2023-08-20T15:33:27;44.80;1.00
19033;DHT22;9649;51.042;13.804;2023-08-20T15:38:31;44.50;1.00
19033;DHT22;9649;51.042;13.804;2023-08-20T15:43:36;42.90;1.00
19033;DHT22;9649;51.042;13.804;2023-08-20T15:48:39;41.90;1.00
19033;DHT22;9649;51.042;13.804;2023-08-20T15:53:41;41.00;1.00
19033;DHT22;9649;51.042;13.804;2023-08-20T15:58:46;39.30;1.00
19033;DHT22;9649;51.042;13.804;2023-08-20T16:03:49;37.90;1.00
19033;DHT22;9649;51.042;13.804;2023-08-20T16:08:53;37.20;1.00
19033;DHT22;9649;51.042;13.804;2023-08-20T16:14:00;37.20;34.70
19033;DHT22;9649;51.042;13.804;2023-08-20T16:19:03;37.20;43.50
19033;DHT22;9649;51.042;13.804;2023-08-20T16:24:06;37.10;81.70
19033;DHT22;9649;51.042;13.804;2023-08-20T16:29:10;37.20;83.10
19033;DHT22;9649;51.042;13.804;2023-08-20T16:34:13;36.30;78.00
19033;DHT22;9649;51.042;13.804;2023-08-20T16:39:16;35.30;99.90
19033;DHT22;9649;51.042;13.804;2023-08-20T16:44:20;34.30;99.90
19033;DHT22;9649;51.042;13.804;2023-08-20T16:49:24;33.50;99.90
19033;DHT22;9649;51.042;13.804;2023-08-20T16:54:27;33.70;99.90
19033;DHT22;9649;51.042;13.804;2023-08-20T16:59:35;33.20;99.90
19033;DHT22;9649;51.042;13.804;2023-08-20T17:04:38;33.00;99.90
19033;DHT22;9649;51.042;13.804;2023-08-20T17:09:41;32.70;99.90
19033;DHT22;9649;51.042;13.804;2023-08-20T17:14:46;32.30;99.90
19033;DHT22;9649;51.042;13.804;2023-08-20T17:19:49;31.60;99.90
19033;DHT22;9649;51.042;13.804;2023-08-20T17:24:52;31.40;99.90
19033;DHT22;9649;51.042;13.804;2023-08-20T17:29:58;31.20;99.90
19033;DHT22;9649;51.042;13.804;2023-08-20T17:35:06;31.00;1.00
19033;DHT22;9649;51.042;13.804;2023-08-20T17:40:13;31.30;1.00
19033;DHT22;9649;51.042;13.804;2023-08-20T17:45:21;31.60;1.00
19033;DHT22;9649;51.042;13.804;2023-08-20T17:50:29;31.90;1.00
19033;DHT22;9649;51.042;13.804;2023-08-20T17:55:35;31.50;1.00
19033;DHT22;9649;51.042;13.804;2023-08-20T18:00:43;30.90;49.40
19033;DHT22;9649;51.042;13.804;2023-08-20T18:05:48;30.30;1.00
19033;DHT22;9649;51.042;13.804;2023-08-20T18:10:53;29.60;99.90
19033;DHT22;9649;51.042;13.804;2023-08-20T18:16:01;29.10;1.00
19033;DHT22;9649;51.042;13.804;2023-08-20T18:21:07;28.60;1.00
19033;DHT22;9649;51.042;13.804;2023-08-20T18:26:09;28.20;99.90
19033;DHT22;9649;51.042;13.804;2023-08-20T18:31:14;28.00;1.00
19033;DHT22;9649;51.042;13.804;2023-08-20T18:36:39;27.90;1.00
19033;DHT22;9649;51.042;13.804;2023-08-20T18:41:44;27.80;16.70
19033;DHT22;9649;51.042;13.804;2023-08-20T18:46:49;27.70;1.00
19033;DHT22;9649;51.042;13.804;2023-08-20T18:51:52;27.60;99.90
19033;DHT22;9649;51.042;13.804;2023-08-20T18:57:00;27.40;1.00
19033;DHT22;9649;51.042;13.804;2023-08-20T19:02:06;27.50;1.00
19033;DHT22;9649;51.042;13.804;2023-08-20T19:07:09;27.60;1.00
19033;DHT22;9649;51.042;13.804;2023-08-20T19:12:12;27.60;1.00
19033;DHT22;9649;51.042;13.804;2023-08-20T19:17:16;27.50;1.00
19033;DHT22;9649;51.042;13.804;2023-08-20T19:22:19;27.50;1.00
19033;DHT22;9649;51.042;13.804;2023-08-20T19:27:22;27.50;29.80
19033;DHT22;9649;51.042;13.804;2023-08-20T19:32:26;27.30;99.90
19033;DHT22;9649;51.042;13.804;2023-08-20T19:37:30;27.30;1.00
19033;DHT22;9649;51.042;13.804;2023-08-20T19:42:36;27.10;1.00
19033;DHT22;9649;51.042;13.804;2023-08-20T19:47:50;27.10;1.00
19033;DHT22;9649;51.042;13.804;2023-08-20T19:52:54;27.00;1.00
19033;DHT22;9649;51.042;13.804;2023-08-20T19:57:58;27.10;1.00
19033;DHT22;9649;51.042;13.804;2023-08-20T20:03:06;26.70;1.00
19033;DHT22;9649;51.042;13.804;2023-08-20T20:08:11;26.60;1.00
19033;DHT22;9649;51.042;13.804;2023-08-20T20:13:14;26.60;1.00
19033;DHT22;9649;51.042;13.804;2023-08-20T20:18:18;26.70;1.00
19033;DHT22;9649;51.042;13.804;2023-08-20T20:23:27;26.90;1.00
19033;DHT22;9649;51.042;13.804;2023-08-20T20:28:30;26.70;1.00
19033;DHT22;9649;51.042;13.804;2023-08-20T20:33:35;26.60;1.00
19033;DHT22;9649;51.042;13.804;2023-08-20T20:38:38;26.50;1.00
19033;DHT22;9649;51.042;13.804;2023-08-20T20:43:42;26.50;1.00
19033;DHT22;9649;51.042;13.804;2023-08-20T20:48:46;26.30;1.00
19033;DHT22;9649;51.042;13.804;2023-08-20T20:53:52;26.20;1.00
19033;DHT22;9649;51.042;13.804;2023-08-20T20:58:55;26.20;1.00
19033;DHT22;9649;51.042;13.804;2023-08-20T21:03:59;26.30;1.00
19033;DHT22;9649;51.042;13.804;2023-08-20T21:09:03;26.50;1.00
19033;DHT22;9649;51.042;13.804;2023-08-20T21:14:05;26.40;1.00
19033;DHT22;9649;51.042;13.804;2023-08-20T21:19:10;26.20;1.00
19033;DHT22;9649;51.042;13.804;2023-08-20T21:24:13;26.20;1.00
19033;DHT22;9649;51.042;13.804;2023-08-20T21:29:15;26.10;1.00
19033;DHT22;9649;51.042;13.804;2023-08-20T21:34:20;26.10;1.00
19033;DHT22;9649;51.042;13.804;2023-08-20T21:39:23;26.00;1.90
19033;DHT22;9649;51.042;13.804;2023-08-20T21:44:25;26.00;1.00
19033;DHT22;9649;51.042;13.804;2023-08-20T21:49:30;26.10;13.20
19033;DHT22;9649;51.042;13.804;2023-08-20T21:54:32;25.90;97.30
19033;DHT22;9649;51.042;13.804;2023-08-20T21:59:35;25.70;99.90
19033;DHT22;9649;51.042;13.804;2023-08-20T22:04:40;25.70;98.40
19033;DHT22;9649;51.042;13.804;2023-08-20T22:09:42;25.70;99.90
19033;DHT22;9649;51.042;13.804;2023-08-20T22:14:45;25.60;99.90
19033;DHT22;9649;51.042;13.804;2023-08-20T22:19:49;25.50;1.00
19033;DHT22;9649;51.042;13.804;2023-08-20T22:24:52;25.30;1.00
19033;DHT22;9649;51.042;13.804;2023-08-20T22:29:55;24.90;54.60
19033;DHT22;9649;51.042;13.804;2023-08-20T22:34:59;24.80;1.00
19033;DHT22;9649;51.042;13.804;2023-08-20T22:40:03;24.80;1.00
19033;DHT22;9649;51.042;13.804;2023-08-20T22:45:09;24.80;1.00
19033;DHT22;9649;51.042;13.804;2023-08-20T22:50:13;24.90;1.00
19033;DHT22;9649;51.042;13.804;2023-08-20T22:55:16;25.00;1.00
19033;DHT22;9649;51.042;13.804;2023-08-20T23:00:19;25.10;1.00
19033;DHT22;9649;51.042;13.804;2023-08-20T23:05:24;25.00;1.00
19033;DHT22;9649;51.042;13.804;2023-08-20T23:10:27;25.00;1.00
19033;DHT22;9649;51.042;13.804;2023-08-20T23:15:30;24.80;1.00
19033;DHT22;9649;51.042;13.804;2023-08-20T23:20:34;24.80;1.00
19033;DHT22;9649;51.042;13.804;2023-08-20T23:25:37;24.80;1.00
19033;DHT22;9649;51.042;13.804;2023-08-20T23:30:41;24.80;1.00
19033;DHT22;9649;51.042;13.804;2023-08-20T23:35:46;24.60;1.00
19033;DHT22;9649;51.042;13.804;2023-08-20T23:40:48;24.60;1.00
19033;DHT22;9649;51.042;13.804;2023-08-20T23:45:51;24.40;1.00
19033;DHT22;9649;51.042;13.804;2023-08-20T23:50:55;24.40;1.00
19033;DHT22;9649;51.042;13.804;2023-08-20T23:55:58;24.40;1.00
